createdAt,value
2023-05-08T00:01:24.238Z,100893.69
2023-05-08T00:03:57.659Z,100896.88
2023-05-08T00:06:27.463Z,100901.56
2023-05-08T00:08:59.989Z,100902.31
2023-05-08T00:11:28.583Z,100901.34
2023-05-08T00:13:58.141Z,100905.19
2023-05-08T00:16:27.066Z,100911.53
2023-05-08T00:18:56.164Z,100909.13
2023-05-08T00:21:24.780Z,100911.75
2023-05-08T00:23:54.672Z,100908.81
2023-05-08T00:26:24.547Z,100914.97
2023-05-08T00:28:52.855Z,100908.66
2023-05-08T00:31:21.230Z,100907.75
2023-05-08T00:33:49.378Z,100906.41
2023-05-08T00:36:18.226Z,100906.25
2023-05-08T00:38:47.568Z,100905.50
2023-05-08T00:41:16.345Z,100913.16
2023-05-08T00:43:45.910Z,100908.91
2023-05-08T00:46:14.913Z,100908.13
2023-05-08T00:48:44.666Z,100908.13
2023-05-08T00:51:13.410Z,100911.09
2023-05-08T00:53:45.204Z,100909.78
2023-05-08T00:56:16.863Z,100908.47
2023-05-08T00:58:46.842Z,100904.34
2023-05-08T01:01:15.929Z,100919.22
2023-05-08T01:03:44.652Z,100907.91
2023-05-08T01:06:13.905Z,100912.16
2023-05-08T01:08:45.204Z,100909.53
2023-05-08T01:11:21.785Z,100915.13
2023-05-08T01:14:03.246Z,100913.25
2023-05-08T01:16:40.186Z,100918.09
2023-05-08T01:19:31.740Z,100919.56
2023-05-08T01:22:07.678Z,100925.88
2023-05-08T01:25:13.491Z,100925.31
2023-05-08T01:28:01.222Z,100922.50
2023-05-08T01:31:00.670Z,100919.72
2023-05-08T01:33:36.445Z,100923.97
2023-05-08T01:36:18.798Z,100919.16
2023-05-08T01:38:54.863Z,100925.47
2023-05-08T01:41:28.417Z,100929.16
2023-05-08T01:44:08.269Z,100927.66
2023-05-08T01:46:36.768Z,100928.25
2023-05-08T01:49:10.167Z,100924.88
2023-05-08T01:51:43.736Z,100928.25
2023-05-08T01:54:16.025Z,100928.66
2023-05-08T01:56:47.842Z,100927.94
2023-05-08T01:59:22.148Z,100934.25
2023-05-08T02:01:53.860Z,100930.00
2023-05-08T02:04:25.135Z,100938.19
2023-05-08T02:06:54.593Z,100936.72
2023-05-08T02:09:25.114Z,100943.78
2023-05-08T02:11:55.651Z,100944.19
2023-05-08T02:14:26.334Z,100944.59
2023-05-08T02:16:56.946Z,100943.13
2023-05-08T02:19:30.473Z,100947.97
2023-05-08T02:22:01.007Z,100939.72
2023-05-08T02:24:33.523Z,100946.22
2023-05-08T02:27:02.340Z,100939.91
2023-05-08T02:29:31.917Z,100947.38
2023-05-08T02:32:03.522Z,100939.97
2023-05-08T02:34:33.434Z,100943.75
2023-05-08T02:37:03.607Z,100940.97
2023-05-08T02:39:33.624Z,100937.63
2023-05-08T02:42:02.354Z,100936.38
2023-05-08T02:44:31.398Z,100940.06
2023-05-08T02:47:07.286Z,100938.41
2023-05-08T02:49:48.771Z,100938.97
2023-05-08T02:52:24.336Z,100937.34
2023-05-08T02:54:59.708Z,100929.88
2023-05-08T02:57:37.216Z,100944.31
2023-05-08T03:00:13.433Z,100932.84
2023-05-08T03:02:47.068Z,100931.03
2023-05-08T03:05:20.879Z,100927.00
2023-05-08T03:07:54.926Z,100921.75
2023-05-08T03:10:29.562Z,100926.19
2023-05-08T03:12:59.606Z,100925.44
2023-05-08T03:15:36.768Z,100917.09
2023-05-08T03:18:09.172Z,100921.75
2023-05-08T03:20:44.806Z,100924.94
2023-05-08T03:23:14.830Z,100926.81
2023-05-08T03:25:44.524Z,100918.78
2023-05-08T03:28:14.854Z,100919.94
2023-05-08T03:30:44.743Z,100920.75
2023-05-08T03:33:18.876Z,100924.09
2023-05-08T03:35:51.006Z,100920.16
2023-05-08T03:38:19.884Z,100926.50
2023-05-08T03:40:50.338Z,100922.28
2023-05-08T03:43:23.895Z,100924.50
2023-05-08T03:45:52.930Z,100929.50
2023-05-08T03:48:26.806Z,100931.00
2023-05-08T03:50:58.717Z,100928.41
2023-05-08T03:53:27.317Z,100924.50
2023-05-08T03:55:58.315Z,100932.88
2023-05-08T03:58:33.807Z,100930.25
2023-05-08T04:01:08.956Z,100933.19
2023-05-08T04:04:01.214Z,100934.69
2023-05-08T04:06:49.293Z,100928.34
2023-05-08T04:09:28.259Z,100933.38
2023-05-08T04:14:53.596Z,100934.53
2023-05-08T04:17:30.448Z,100938.94
2023-05-08T04:20:04.234Z,100939.69
2023-05-08T04:22:35.777Z,100934.88
2023-05-08T04:25:07.297Z,100935.78
2023-05-08T04:27:40.874Z,100940.75
2023-05-08T04:30:12.100Z,100942.25
2023-05-08T04:32:43.472Z,100949.31
2023-05-08T04:35:14.584Z,100943.31
2023-05-08T04:37:45.020Z,100948.16
2023-05-08T04:40:14.345Z,100956.69
2023-05-08T04:42:47.438Z,100961.72
2023-05-08T04:45:18.515Z,100965.25
2023-05-08T04:47:47.353Z,100968.22
2023-05-08T04:50:16.208Z,100972.28
2023-05-08T04:52:46.155Z,100966.72
2023-05-08T04:55:14.667Z,100982.72
2023-05-08T04:57:44.403Z,100982.72
2023-05-08T05:00:14.064Z,100982.72
2023-05-08T05:02:44.194Z,100982.31
2023-05-08T05:05:13.768Z,100990.69
2023-05-08T05:07:42.941Z,100989.38
2023-05-08T05:10:14.093Z,100986.03
2023-05-08T05:12:42.450Z,100993.81
2023-05-08T05:15:11.999Z,101002.34
2023-05-08T05:17:41.629Z,100997.50
2023-05-08T05:20:13.354Z,100995.63
2023-05-08T05:22:42.083Z,100997.13
2023-05-08T05:25:22.734Z,100998.59
2023-05-08T05:27:54.500Z,100995.41
2023-05-08T05:30:24.676Z,100999.09
2023-05-08T05:32:53.416Z,100998.50
2023-05-08T05:38:28.979Z,101000.66
2023-05-08T05:40:57.642Z,100998.22
2023-05-08T05:43:29.942Z,100995.19
2023-05-08T05:46:05.196Z,100997.81
2023-05-08T05:48:34.122Z,101001.22
2023-05-08T05:51:03.550Z,100990.16
2023-05-08T05:53:31.798Z,100997.06
2023-05-08T05:56:00.448Z,101000.25
2023-05-08T05:58:30.485Z,100999.53
2023-05-08T06:01:02.143Z,101004.94
2023-05-08T06:03:31.939Z,101001.78
2023-05-08T06:06:00.695Z,101013.06
2023-05-08T06:08:28.899Z,101006.41
2023-05-08T06:10:58.202Z,101002.63
2023-05-08T06:13:28.041Z,101004.25
2023-05-08T06:15:59.313Z,101005.00
2023-05-08T06:18:29.012Z,100995.09
2023-05-08T06:20:58.121Z,101009.22
2023-05-08T06:23:26.916Z,101009.03
2023-05-08T06:25:56.101Z,101007.31
2023-05-08T06:28:26.220Z,101009.47
2023-05-08T06:30:55.146Z,101016.13
2023-05-08T06:33:26.769Z,101017.22
2023-05-08T06:35:55.927Z,101016.81
2023-05-08T06:38:24.239Z,101017.91
2023-05-08T06:40:55.334Z,101022.16
2023-05-08T06:43:24.400Z,101018.19
2023-05-08T06:45:53.462Z,101019.28
2023-05-08T06:48:21.790Z,101023.13
2023-05-08T06:50:52.461Z,101027.41
2023-05-08T06:53:20.852Z,101021.41
2023-05-08T06:55:49.423Z,101027.75
2023-05-08T06:58:18.100Z,101024.38
2023-05-08T07:00:46.197Z,101035.88
2023-05-08T07:03:14.460Z,101025.13
2023-05-08T07:05:43.417Z,101029.22
2023-05-08T07:08:13.139Z,101029.16
2023-05-08T07:10:41.321Z,101031.50
2023-05-08T07:13:09.572Z,101033.16
2023-05-08T07:15:38.882Z,101034.78
2023-05-08T07:18:07.588Z,101034.78
2023-05-08T07:20:37.135Z,101033.81
2023-05-08T07:23:05.624Z,101032.06
2023-05-08T07:25:36.488Z,101036.38
2023-05-08T07:28:05.213Z,101041.22
2023-05-08T07:30:33.790Z,101039.31
2023-05-08T07:33:03.131Z,101046.94
2023-05-08T07:35:31.496Z,101045.47
2023-05-08T07:38:01.113Z,101042.13
2023-05-08T07:40:30.225Z,101044.31
2023-05-08T07:43:00.237Z,101044.66
2023-05-08T07:45:29.485Z,101047.63
2023-05-08T07:48:00.296Z,101049.81
2023-05-08T07:50:28.885Z,101043.91
2023-05-08T07:52:57.145Z,101039.38
2023-05-08T07:55:25.988Z,101049.66
2023-05-08T07:57:54.349Z,101049.03
2023-05-08T08:00:24.779Z,101038.78
2023-05-08T08:02:53.195Z,101036.63
2023-05-08T08:05:22.419Z,101039.41
2023-05-08T08:07:51.122Z,101038.69
2023-05-08T08:10:19.232Z,101042.69
2023-05-08T08:12:47.899Z,101039.75
2023-05-08T08:15:16.636Z,101040.19
2023-05-08T08:17:46.475Z,101034.03
2023-05-08T08:20:16.417Z,101043.22
2023-05-08T08:22:45.189Z,101029.97
2023-05-08T08:25:13.623Z,101033.06
2023-05-08T08:27:41.930Z,101038.94
2023-05-08T08:30:17.663Z,101031.34
2023-05-08T08:32:48.685Z,101040.94
2023-05-08T08:35:17.466Z,101044.38
2023-05-08T08:37:46.137Z,101041.84
2023-05-08T08:40:14.767Z,101037.75
2023-05-08T08:42:43.072Z,101023.97
2023-05-08T08:45:12.493Z,101029.34
2023-05-08T08:47:45.205Z,101034.47
2023-05-08T08:50:16.526Z,101033.72
2023-05-08T08:52:54.447Z,101036.03
2023-05-08T08:55:24.463Z,101044.06
2023-05-08T08:58:01.051Z,101041.19
2023-05-08T09:00:32.501Z,101035.78
2023-05-08T09:03:04.641Z,101036.56
2023-05-08T09:05:34.641Z,101029.34
2023-05-08T09:08:03.649Z,101038.78
2023-05-08T09:10:32.035Z,101039.59
2023-05-08T09:13:00.272Z,101036.19
2023-05-08T09:15:28.586Z,101038.25
2023-05-08T09:17:56.900Z,101035.34
2023-05-08T09:20:26.725Z,101039.25
2023-05-08T09:22:58.013Z,101049.97
2023-05-08T09:25:26.570Z,101049.03
2023-05-08T09:27:54.701Z,101048.06
2023-05-08T09:31:14.725Z,101049.31
2023-05-08T09:33:46.036Z,101054.88
2023-05-08T09:36:27.720Z,101060.31
2023-05-08T09:38:57.747Z,101063.84
2023-05-08T09:41:26.667Z,101059.72
2023-05-08T09:44:03.683Z,101063.34
2023-05-08T09:46:34.047Z,101060.13
2023-05-08T09:49:04.000Z,101068.22
2023-05-08T09:51:33.437Z,101072.06
2023-05-08T09:54:05.809Z,101067.97
2023-05-08T09:56:35.785Z,101064.91
2023-05-08T09:59:06.353Z,101068.97
2023-05-08T10:01:36.611Z,101068.03
2023-05-08T10:04:06.234Z,101064.91
2023-05-08T10:06:36.767Z,101072.88
2023-05-08T10:09:11.763Z,101067.50
2023-05-08T10:11:41.681Z,101076.41
2023-05-08T10:14:10.809Z,101076.00
2023-05-08T10:16:45.156Z,101074.91
2023-05-08T10:19:15.634Z,101073.00
2023-05-08T10:21:47.934Z,101071.16
2023-05-08T10:24:21.011Z,101067.97
2023-05-08T10:27:06.281Z,101070.78
2023-05-08T10:29:43.242Z,101066.13
2023-05-08T10:32:14.287Z,101072.63
2023-05-08T10:34:45.065Z,101065.50
2023-05-08T10:37:14.017Z,101066.75
2023-05-08T10:39:45.795Z,101065.41
2023-05-08T10:42:15.234Z,101062.09
2023-05-08T10:44:44.723Z,101068.47
2023-05-08T10:47:18.852Z,101063.22
2023-05-08T10:49:54.406Z,101065.44
2023-05-08T10:52:33.157Z,101064.44
2023-05-08T10:55:17.675Z,101054.34
2023-05-08T10:58:04.774Z,101057.28
2023-05-08T11:00:34.612Z,101051.72
2023-05-08T11:03:20.239Z,101052.97
2023-05-08T11:05:57.392Z,101049.81
2023-05-08T11:08:31.107Z,101050.31
2023-05-08T11:11:10.641Z,101054.97
2023-05-08T11:13:40.432Z,101046.34
2023-05-08T11:16:11.023Z,101039.50
2023-05-08T11:18:49.109Z,101048.78
2023-05-08T11:21:22.837Z,101041.78
2023-05-08T11:23:58.351Z,101039.88
2023-05-08T11:26:41.269Z,101041.56
2023-05-08T11:29:18.514Z,101048.75
2023-05-08T11:31:54.069Z,101042.31
2023-05-08T11:34:48.979Z,101033.66
2023-05-08T11:37:24.731Z,101035.78
2023-05-08T11:39:53.107Z,101034.00
2023-05-08T11:42:37.902Z,101026.75
2023-05-08T11:45:07.809Z,101033.72
2023-05-08T11:47:39.733Z,101029.44
2023-05-08T11:50:10.576Z,101028.91
2023-05-08T11:52:40.892Z,101030.81
2023-05-08T11:55:10.996Z,101023.75
2023-05-08T11:57:40.934Z,101012.16
2023-05-08T12:00:11.495Z,101022.22
2023-05-08T12:02:41.778Z,101029.00
2023-05-08T12:05:11.505Z,101019.28
2023-05-08T12:07:46.666Z,101027.88
2023-05-08T12:10:18.304Z,101029.78
2023-05-08T12:12:48.404Z,101025.06
2023-05-08T12:15:16.952Z,101027.63
2023-05-08T12:17:45.291Z,101026.69
2023-05-08T12:20:15.718Z,101030.28
2023-05-08T12:22:52.224Z,101033.28
2023-05-08T12:25:20.799Z,101035.09
2023-05-08T12:27:50.648Z,101023.16
2023-05-08T12:30:19.597Z,101032.56
2023-05-08T12:32:50.166Z,101027.53
2023-05-08T12:35:19.126Z,101034.75
2023-05-08T12:37:47.659Z,101034.47
2023-05-08T12:40:30.933Z,101032.56
2023-05-08T12:43:02.357Z,101040.22
2023-05-08T12:45:33.628Z,101037.72
2023-05-08T12:48:03.651Z,101040.22
2023-05-08T12:50:36.336Z,101028.63
2023-05-08T12:53:05.652Z,101039.44
2023-05-08T12:55:35.513Z,101033.66
2023-05-08T12:58:06.762Z,101037.88
2023-05-08T13:00:37.399Z,101035.13
2023-05-08T13:03:08.668Z,101042.31
2023-05-08T13:05:38.425Z,101036.75
2023-05-08T13:08:09.446Z,101036.19
2023-05-08T13:10:48.295Z,101038.25
2023-05-08T13:13:20.079Z,101042.94
2023-05-08T13:15:49.839Z,101033.03
2023-05-08T13:18:19.119Z,101022.53
2023-05-08T13:20:48.063Z,101025.91
2023-05-08T13:23:17.791Z,101019.34
2023-05-08T13:25:45.995Z,101023.84
2023-05-08T13:28:14.886Z,101019.84
2023-05-08T13:30:44.949Z,101023.72
2023-05-08T13:33:13.110Z,101023.72
2023-05-08T13:35:41.503Z,101028.16
2023-05-08T13:38:09.730Z,101025.81
2023-05-08T13:40:38.223Z,101022.44
2023-05-08T13:43:06.570Z,101026.16
2023-05-08T13:45:35.157Z,101022.59
2023-05-08T13:48:05.402Z,101015.44
2023-05-08T13:50:33.988Z,101023.94
2023-05-08T13:53:02.501Z,101011.50
2023-05-08T13:55:30.586Z,101010.16
2023-05-08T13:58:00.376Z,101012.56
2023-05-08T14:00:28.998Z,101011.94
2023-05-08T14:02:57.816Z,101013.44
2023-05-08T14:05:27.828Z,101019.16
2023-05-08T14:07:56.564Z,101012.16
2023-05-08T14:10:25.356Z,101016.25
2023-05-08T14:12:53.533Z,101013.75
2023-05-08T14:15:26.865Z,101008.53
2023-05-08T14:18:24.504Z,101005.66
2023-05-08T14:20:57.443Z,101004.72
2023-05-08T14:23:25.837Z,100997.44
2023-05-08T14:26:19.623Z,100992.09
2023-05-08T14:28:47.982Z,100989.75
2023-05-08T14:31:16.618Z,100988.47
2023-05-08T14:33:44.794Z,100991.63
2023-05-08T14:36:14.595Z,100991.00
2023-05-08T14:38:43.053Z,100994.75
2023-05-08T14:41:15.551Z,100994.81
2023-05-08T14:43:44.933Z,100984.13
2023-05-08T14:46:13.368Z,100980.94
2023-05-08T14:48:41.955Z,100975.53
2023-05-08T14:51:12.078Z,100983.59
2023-05-08T14:53:42.130Z,100977.50
2023-05-08T14:56:11.035Z,100969.09
2023-05-08T14:58:39.536Z,100975.44
2023-05-08T15:01:07.755Z,100960.03
2023-05-08T15:03:36.725Z,100964.47
2023-05-08T15:06:05.906Z,100967.84
2023-05-08T15:08:34.069Z,100968.13
2023-05-08T15:11:04.271Z,100973.31
2023-05-08T15:13:32.779Z,100968.66
2023-05-08T15:16:01.484Z,100971.34
2023-05-08T15:18:29.677Z,100969.69
2023-05-08T15:20:59.697Z,100977.47
2023-05-08T15:23:28.025Z,100969.66
2023-05-08T15:25:56.207Z,100972.75
2023-05-08T15:28:25.973Z,100969.09
2023-05-08T15:30:54.661Z,100958.69
2023-05-08T15:33:22.978Z,100962.97
2023-05-08T15:35:51.134Z,100966.19
2023-05-08T15:38:20.414Z,100964.78
2023-05-08T15:40:48.841Z,100967.75
2023-05-08T15:43:17.108Z,100966.31
2023-05-08T15:45:46.907Z,100962.88
2023-05-08T15:48:15.413Z,100971.19
2023-05-08T15:50:43.674Z,100966.59
2023-05-08T15:53:11.973Z,100973.72
2023-05-08T15:55:40.264Z,100969.22
2023-05-08T15:58:08.986Z,100977.41
2023-05-08T16:00:44.802Z,100977.75
2023-05-08T16:03:16.116Z,100975.47
2023-05-08T16:05:44.302Z,100975.81
2023-05-08T16:08:13.668Z,100977.03
2023-05-08T16:10:42.720Z,100977.69
2023-05-08T16:13:10.986Z,100987.16
2023-05-08T16:15:39.254Z,100972.41
2023-05-08T16:18:08.616Z,100981.38
2023-05-08T16:20:41.568Z,100977.16
2023-05-08T16:23:10.372Z,100974.28
2023-05-08T16:25:38.908Z,100982.25
2023-05-08T16:28:07.576Z,100971.91
2023-05-08T16:30:36.827Z,100975.72
2023-05-08T16:33:05.433Z,100974.59
2023-05-08T16:35:33.909Z,100969.63
2023-05-08T16:38:04.736Z,100957.38
2023-05-08T16:40:33.016Z,100961.06
2023-05-08T16:43:03.598Z,100967.63
2023-05-08T16:45:31.799Z,100958.94
2023-05-08T16:48:00.296Z,100966.31
2023-05-08T16:50:31.158Z,100960.59
2023-05-08T16:52:59.480Z,100956.72
2023-05-08T16:55:29.147Z,100962.56
2023-05-08T16:57:57.500Z,100955.88
2023-05-08T17:00:26.216Z,100951.28
2023-05-08T17:02:54.711Z,100945.63
2023-05-08T17:05:23.298Z,100955.25
2023-05-08T17:07:52.098Z,100948.81
2023-05-08T17:10:20.617Z,100944.28
2023-05-08T17:12:51.731Z,100943.22
2023-05-08T17:15:21.293Z,100934.66
2023-05-08T17:17:51.297Z,100936.13
2023-05-08T17:20:20.033Z,100945.03
2023-05-08T17:22:48.829Z,100944.59
2023-05-08T17:25:17.265Z,100945.31
2023-05-08T17:27:45.699Z,100948.28
2023-05-08T17:30:16.887Z,100943.63
2023-05-08T17:32:46.430Z,100944.75
2023-05-08T17:35:14.923Z,100938.91
2023-05-08T17:37:43.497Z,100940.63
2023-05-08T17:40:13.456Z,100939.06
2023-05-08T17:42:41.842Z,100947.88
2023-05-08T17:45:11.678Z,100950.47
2023-05-08T17:47:41.265Z,100958.13
2023-05-08T17:50:10.023Z,100954.44
2023-05-08T17:52:38.728Z,100959.19
2023-05-08T17:55:08.363Z,100948.88
2023-05-08T17:57:36.659Z,100960.66
2023-05-08T18:00:08.194Z,100961.53
2023-05-08T18:02:50.711Z,100967.16
2023-05-08T18:05:19.333Z,100968.09
2023-05-08T18:07:48.594Z,100964.56
2023-05-08T18:10:17.011Z,100969.88
2023-05-08T18:12:48.101Z,100971.50
2023-05-08T18:15:16.630Z,100965.31
2023-05-08T18:17:45.076Z,100958.66
2023-05-08T18:20:15.917Z,100962.06
2023-05-08T18:22:45.246Z,100960.72
2023-05-08T18:25:13.508Z,100959.41
2023-05-08T18:27:42.993Z,100970.78
2023-05-08T18:30:12.177Z,100967.22
2023-05-08T18:32:42.656Z,100968.53
2023-05-08T18:35:10.961Z,100965.16
2023-05-08T18:37:40.741Z,100975.59
2023-05-08T18:40:09.926Z,100973.50
2023-05-08T18:42:38.405Z,100975.53
2023-05-08T18:45:07.665Z,100977.28
2023-05-08T18:47:35.993Z,100976.69
2023-05-08T18:50:04.893Z,100980.50
2023-05-08T18:52:33.323Z,100980.44
2023-05-08T18:55:04.023Z,100978.31
2023-05-08T18:57:32.216Z,100978.84
2023-05-08T19:00:00.377Z,100982.03
2023-05-08T19:02:28.836Z,100983.31
2023-05-08T19:04:57.653Z,100989.41
2023-05-08T19:07:26.118Z,100995.81
2023-05-08T19:09:55.648Z,100991.41
2023-05-08T19:12:26.436Z,100992.13
2023-05-08T19:14:56.007Z,100986.72
2023-05-08T19:17:24.893Z,100978.97
2023-05-08T19:19:53.063Z,100985.03
2023-05-08T19:22:21.800Z,100979.28
2023-05-08T19:24:50.299Z,100977.81
2023-05-08T19:27:18.878Z,100985.44
2023-05-08T19:29:48.514Z,100987.28
2023-05-08T19:32:17.000Z,100996.63
2023-05-08T19:34:45.147Z,100988.84
2023-05-08T19:37:13.313Z,100987.03
2023-05-08T19:39:41.826Z,100988.03
2023-05-08T19:42:13.616Z,100986.53
2023-05-08T19:44:42.089Z,100989.28
2023-05-08T19:47:11.922Z,100990.34
2023-05-08T19:49:40.044Z,100984.09
2023-05-08T19:52:08.329Z,100985.84
2023-05-08T19:54:36.630Z,100985.75
2023-05-08T19:57:05.700Z,100989.13
2023-05-08T19:59:33.982Z,100987.47
2023-05-08T20:02:03.929Z,100995.69
2023-05-08T20:04:40.049Z,100988.22
2023-05-08T20:07:20.365Z,100992.34
2023-05-08T20:09:48.780Z,100988.81
2023-05-08T20:12:16.982Z,100987.81
2023-05-08T20:14:45.264Z,100985.28
2023-05-08T20:17:13.350Z,100983.53
2023-05-08T20:19:43.191Z,100986.00
2023-05-08T20:22:11.948Z,100990.44
2023-05-08T20:24:40.094Z,100988.72
2023-05-08T20:27:08.848Z,100995.03
2023-05-08T20:29:37.015Z,100996.53
2023-05-08T20:32:07.563Z,100995.38
2023-05-08T20:34:36.938Z,100989.78
2023-05-08T20:37:06.824Z,100993.16
2023-05-08T20:39:35.572Z,100996.09
2023-05-08T20:42:03.711Z,100981.81
2023-05-08T20:44:32.118Z,100984.59
2023-05-08T20:47:01.422Z,100983.03
2023-05-08T20:49:29.516Z,100978.19
2023-05-08T20:51:57.732Z,100978.63
2023-05-08T20:54:27.694Z,100970.06
2023-05-08T20:56:56.779Z,100970.81
2023-05-08T20:59:25.396Z,100972.44
2023-05-08T21:01:56.487Z,100960.38
2023-05-08T21:04:25.176Z,100958.91
2023-05-08T21:06:53.397Z,100955.19
2023-05-08T21:09:21.868Z,100968.00
2023-05-08T21:11:53.479Z,100957.81
2023-05-08T21:14:23.753Z,100959.31
2023-05-08T21:16:53.899Z,100955.59
2023-05-08T21:19:22.587Z,100959.88
2023-05-08T21:21:51.194Z,100959.72
2023-05-08T21:24:19.629Z,100952.66
2023-05-08T21:26:48.092Z,100944.13
2023-05-08T21:29:18.189Z,100957.19
2023-05-08T21:31:46.341Z,100952.75
2023-05-08T21:34:17.262Z,100956.84
2023-05-08T21:36:45.725Z,100953.66
2023-05-08T21:39:15.708Z,100945.13
2023-05-08T21:41:44.412Z,100953.50
2023-05-08T21:44:12.817Z,100944.94
2023-05-08T21:46:44.547Z,100951.28
2023-05-08T21:49:12.925Z,100950.38
2023-05-08T21:51:41.118Z,100949.22
2023-05-08T21:54:10.170Z,100945.13
2023-05-08T21:56:38.384Z,100945.13
2023-05-08T21:59:07.538Z,100939.53
2023-05-08T22:01:35.762Z,100934.84
2023-05-08T22:04:08.962Z,100938.22
2023-05-08T22:06:38.363Z,100938.94
2023-05-08T22:09:07.554Z,100939.53
2023-05-08T22:11:36.351Z,100935.25
2023-05-08T22:14:04.642Z,100935.09
2023-05-08T22:16:33.146Z,100932.31
2023-05-08T22:19:01.420Z,100930.09
2023-05-08T22:21:31.224Z,100920.06
2023-05-08T22:23:59.512Z,100923.41
2023-05-08T22:26:28.669Z,100926.63
2023-05-08T22:28:57.093Z,100926.28
2023-05-08T22:31:25.691Z,100921.28
2023-05-08T22:33:55.479Z,100918.31
2023-05-08T22:36:25.855Z,100909.03
2023-05-08T22:38:55.386Z,100907.22
2023-05-08T22:41:23.751Z,100911.75
2023-05-08T22:43:52.276Z,100902.06
2023-05-08T22:46:20.929Z,100895.94
2023-05-08T22:48:49.856Z,100893.13
2023-05-08T22:51:18.732Z,100893.88
2023-05-08T22:53:48.473Z,100890.47
2023-05-08T22:56:18.008Z,100889.75
2023-05-08T22:58:47.104Z,100877.28
2023-05-08T23:01:17.274Z,100884.00
2023-05-08T23:03:47.990Z,100878.25
2023-05-08T23:06:16.719Z,100876.44
2023-05-08T23:08:44.916Z,100865.16
2023-05-08T23:11:13.863Z,100879.09
2023-05-08T23:13:43.703Z,100876.13
2023-05-08T23:16:11.992Z,100875.41
2023-05-08T23:18:40.530Z,100874.66
2023-05-08T23:21:09.601Z,100878.03
2023-05-08T23:23:37.712Z,100871.72
2023-05-08T23:26:06.737Z,100868.34
2023-05-08T23:28:36.158Z,100866.03
2023-05-08T23:31:08.328Z,100868.00
2023-05-08T23:33:36.848Z,100860.69
2023-05-08T23:36:06.100Z,100860.69
2023-05-08T23:38:34.343Z,100863.63
2023-05-08T23:41:03.094Z,100859.94
2023-05-08T23:43:32.002Z,100861.84
2023-05-08T23:46:00.847Z,100855.91
2023-05-08T23:48:30.820Z,100861.50
2023-05-08T23:50:59.337Z,100850.34
2023-05-08T23:53:27.705Z,100853.31
2023-05-08T23:55:57.674Z,100853.47
2023-05-08T23:58:26.274Z,100849.38
